createdAt,value
2023-03-13T00:01:34.648Z,7.10
2023-03-13T00:04:01.505Z,9.90
2023-03-13T00:06:34.357Z,9.40
2023-03-13T00:09:02.383Z,9.10
2023-03-13T00:11:29.439Z,6.50
2023-03-13T00:13:58.139Z,7.40
2023-03-13T00:16:25.094Z,6.60
2023-03-13T00:18:53.540Z,6.90
2023-03-13T00:21:23.051Z,7.40
2023-03-13T00:23:50.539Z,6.20
2023-03-13T00:26:20.031Z,7.80
2023-03-13T00:28:48.278Z,8.20
2023-03-13T00:31:18.319Z,7.70
2023-03-13T00:33:50.306Z,7.20
2023-03-13T00:36:20.793Z,7.30
2023-03-13T00:38:49.187Z,7.90
2023-03-13T00:41:21.701Z,8.80
2023-03-13T00:43:49.583Z,8.60
2023-03-13T00:46:19.708Z,6.00
2023-03-13T00:48:46.736Z,6.00
2023-03-13T00:51:15.532Z,5.60
2023-03-13T00:53:42.984Z,7.60
2023-03-13T00:56:15.314Z,5.10
2023-03-13T00:58:43.707Z,4.50
2023-03-13T01:01:13.372Z,6.40
2023-03-13T01:03:41.831Z,4.30
2023-03-13T01:06:11.803Z,5.50
2023-03-13T01:08:39.423Z,4.40
2023-03-13T01:11:11.268Z,4.20
2023-03-13T01:13:38.606Z,5.20
2023-03-13T01:16:18.027Z,6.20
2023-03-13T01:18:48.444Z,7.00
2023-03-13T01:21:16.333Z,5.80
2023-03-13T01:23:43.133Z,4.80
2023-03-13T01:26:10.278Z,4.80
2023-03-13T01:28:38.325Z,6.20
2023-03-13T01:31:19.550Z,7.10
2023-03-13T01:33:48.371Z,5.50
2023-03-13T01:36:16.978Z,4.40
2023-03-13T01:38:43.906Z,5.10
2023-03-13T01:41:12.504Z,6.20
2023-03-13T01:43:39.670Z,5.50
2023-03-13T01:46:18.541Z,6.10
2023-03-13T01:49:11.448Z,5.20
2023-03-13T01:52:22.776Z,7.40
2023-03-13T01:54:59.736Z,6.90
2023-03-13T01:57:33.683Z,5.80
2023-03-13T02:00:09.977Z,8.80
2023-03-13T02:02:43.073Z,6.90
2023-03-13T02:05:10.093Z,6.80
2023-03-13T02:07:50.853Z,9.70
2023-03-13T02:10:19.022Z,6.00
2023-03-13T02:12:45.865Z,8.60
2023-03-13T02:15:19.598Z,5.30
2023-03-13T02:17:48.546Z,6.00
2023-03-13T02:20:18.221Z,6.90
2023-03-13T02:22:54.080Z,7.70
2023-03-13T02:25:23.542Z,5.90
2023-03-13T02:27:55.556Z,7.10
2023-03-13T02:30:22.647Z,7.70
2023-03-13T02:32:50.322Z,8.00
2023-03-13T02:35:20.223Z,7.50
2023-03-13T02:37:51.883Z,8.40
2023-03-13T02:40:25.691Z,8.70
2023-03-13T02:42:54.773Z,9.30
2023-03-13T02:45:22.019Z,7.70
2023-03-13T02:47:49.018Z,5.30
2023-03-13T02:50:15.977Z,5.80
2023-03-13T02:52:50.685Z,7.30
2023-03-13T02:55:40.820Z,9.20
2023-03-13T02:58:08.262Z,8.30
2023-03-13T03:00:36.533Z,6.50
2023-03-13T03:03:03.554Z,6.90
2023-03-13T03:05:30.351Z,7.80
2023-03-13T03:07:57.552Z,6.20
2023-03-13T03:10:24.932Z,7.30
2023-03-13T03:12:51.653Z,9.30
2023-03-13T03:15:18.736Z,7.40
2023-03-13T03:17:45.865Z,9.00
2023-03-13T03:20:12.713Z,7.80
2023-03-13T03:22:42.197Z,7.50
2023-03-13T03:25:09.606Z,9.00
2023-03-13T03:27:37.061Z,7.20
2023-03-13T03:30:06.910Z,7.20
2023-03-13T03:32:34.571Z,6.20
2023-03-13T03:35:01.442Z,7.40
2023-03-13T03:37:28.549Z,6.20
2023-03-13T03:39:55.404Z,7.50
2023-03-13T03:42:22.320Z,7.20
2023-03-13T03:44:49.219Z,7.20
2023-03-13T03:47:16.165Z,7.30
2023-03-13T03:49:45.103Z,6.80
2023-03-13T03:52:12.271Z,6.80
2023-03-13T03:54:40.692Z,6.70
2023-03-13T03:57:07.549Z,11.00
2023-03-13T03:59:34.422Z,5.50
2023-03-13T04:02:07.323Z,6.40
2023-03-13T04:04:34.836Z,9.40
2023-03-13T04:07:05.515Z,6.50
2023-03-13T04:09:33.476Z,10.10
2023-03-13T04:12:01.561Z,6.70
2023-03-13T04:14:30.170Z,8.00
2023-03-13T04:16:57.636Z,8.00
2023-03-13T04:19:24.743Z,11.20
2023-03-13T04:21:51.578Z,8.00
2023-03-13T04:24:19.493Z,8.20
2023-03-13T04:26:46.264Z,9.30
2023-03-13T04:29:14.660Z,8.20
2023-03-13T04:31:50.053Z,9.10
2023-03-13T04:37:28.182Z,8.10
2023-03-13T04:40:25.560Z,7.60
2023-03-13T04:43:09.191Z,12.10
2023-03-13T04:45:35.858Z,10.60
2023-03-13T04:48:21.266Z,8.80
2023-03-13T04:51:11.011Z,10.50
2023-03-13T04:53:50.353Z,11.90
2023-03-13T04:56:43.189Z,14.10
2023-03-13T04:59:33.663Z,14.20
2023-03-13T05:05:11.263Z,10.90
2023-03-13T05:07:50.034Z,12.80
2023-03-13T05:10:31.806Z,11.40
2023-03-13T05:13:10.238Z,9.20
2023-03-13T05:15:53.763Z,17.20
2023-03-13T05:18:39.481Z,9.40
2023-03-13T05:21:22.362Z,13.10
2023-03-13T05:24:00.905Z,11.70
2023-03-13T05:27:06.067Z,8.30
2023-03-13T05:29:32.923Z,10.70
2023-03-13T05:32:08.637Z,8.60
2023-03-13T05:34:47.714Z,9.10
2023-03-13T05:37:32.735Z,10.10
2023-03-13T05:40:18.509Z,10.90
2023-03-13T05:43:08.497Z,10.90
2023-03-13T05:45:53.852Z,8.30
2023-03-13T05:48:34.231Z,8.10
2023-03-13T05:51:23.977Z,11.40
2023-03-13T05:54:13.747Z,11.30
2023-03-13T05:56:57.306Z,9.00
2023-03-13T05:59:33.676Z,9.40
2023-03-13T06:02:38.499Z,6.50
2023-03-13T06:05:06.830Z,8.40
2023-03-13T06:07:33.848Z,6.80
2023-03-13T06:10:00.694Z,6.50
2023-03-13T06:12:27.431Z,10.90
2023-03-13T06:14:54.222Z,15.50
2023-03-13T06:17:40.934Z,13.00
2023-03-13T06:20:08.184Z,8.20
2023-03-13T06:22:35.054Z,7.00
2023-03-13T06:25:01.851Z,9.00
2023-03-13T06:27:28.605Z,10.90
2023-03-13T06:29:55.395Z,9.10
2023-03-13T06:32:25.338Z,7.00
2023-03-13T06:34:52.432Z,9.20
2023-03-13T06:37:19.323Z,8.20
2023-03-13T06:39:46.548Z,6.80
2023-03-13T06:42:13.401Z,4.90
2023-03-13T06:44:41.648Z,5.90
2023-03-13T06:47:13.003Z,7.30
2023-03-13T06:49:41.199Z,4.70
2023-03-13T06:52:09.589Z,4.90
2023-03-13T06:54:36.470Z,7.20
2023-03-13T06:57:03.342Z,5.90
2023-03-13T06:59:30.128Z,5.30
2023-03-13T07:01:57.022Z,5.60
2023-03-13T07:04:23.903Z,6.50
2023-03-13T07:06:51.953Z,7.70
2023-03-13T07:09:20.139Z,8.90
2023-03-13T07:11:47.689Z,10.50
2023-03-13T07:14:17.326Z,8.30
2023-03-13T07:16:45.419Z,10.80
2023-03-13T07:19:12.838Z,6.60
2023-03-13T07:21:41.883Z,5.30
2023-03-13T07:24:08.822Z,9.70
2023-03-13T07:26:35.698Z,7.40
2023-03-13T07:29:05.590Z,8.70
2023-03-13T07:31:34.179Z,5.80
2023-03-13T07:34:01.036Z,7.30
2023-03-13T07:36:27.979Z,6.40
2023-03-13T07:38:54.792Z,6.70
2023-03-13T07:41:21.717Z,10.60
2023-03-13T07:43:48.581Z,7.60
2023-03-13T07:46:18.849Z,8.60
2023-03-13T07:48:46.437Z,6.50
2023-03-13T07:51:18.170Z,7.30
2023-03-13T07:53:47.835Z,6.30
2023-03-13T07:56:20.018Z,6.10
2023-03-13T07:58:47.113Z,10.10
2023-03-13T08:01:29.070Z,7.60
2023-03-13T08:03:58.841Z,5.10
2023-03-13T08:06:27.045Z,10.30
2023-03-13T08:08:58.268Z,7.90
2023-03-13T08:11:26.771Z,7.40
2023-03-13T08:13:55.235Z,7.90
2023-03-13T08:16:24.784Z,6.90
2023-03-13T08:18:55.268Z,7.60
2023-03-13T08:21:27.290Z,9.40
2023-03-13T08:23:55.977Z,8.10
2023-03-13T08:26:24.630Z,6.40
2023-03-13T08:28:56.990Z,7.70
2023-03-13T08:31:35.915Z,8.90
2023-03-13T08:34:03.043Z,7.60
2023-03-13T08:36:33.164Z,11.70
2023-03-13T08:39:02.226Z,9.80
2023-03-13T08:41:34.904Z,10.10
2023-03-13T08:44:02.075Z,9.80
2023-03-13T08:46:33.757Z,10.10
2023-03-13T08:49:00.774Z,9.40
2023-03-13T08:51:30.975Z,12.20
2023-03-13T08:53:58.045Z,9.80
2023-03-13T08:56:28.286Z,10.80
2023-03-13T08:59:18.897Z,10.50
2023-03-13T09:01:45.759Z,10.80
2023-03-13T09:04:12.676Z,10.80
2023-03-13T09:06:39.431Z,9.30
2023-03-13T09:09:08.145Z,9.30
2023-03-13T09:11:36.999Z,10.50
2023-03-13T09:14:03.850Z,8.80
2023-03-13T09:16:32.679Z,8.50
2023-03-13T09:18:59.777Z,9.10
2023-03-13T09:21:34.923Z,14.10
2023-03-13T09:24:02.401Z,9.80
2023-03-13T09:26:30.285Z,10.40
2023-03-13T09:28:57.855Z,9.00
2023-03-13T09:31:27.254Z,5.90
2023-03-13T09:33:54.496Z,12.20
2023-03-13T09:36:23.210Z,8.30
2023-03-13T09:38:55.379Z,10.20
2023-03-13T09:44:17.756Z,9.00
2023-03-13T09:46:48.539Z,11.10
2023-03-13T09:49:27.666Z,10.50
2023-03-13T09:52:11.197Z,10.60
2023-03-13T09:54:49.923Z,8.60
2023-03-13T09:57:32.237Z,11.10
2023-03-13T10:00:22.058Z,7.90
2023-03-13T10:06:29.063Z,9.80
2023-03-13T10:09:35.481Z,8.30
2023-03-13T10:12:15.089Z,10.00
2023-03-13T10:14:53.972Z,10.60
2023-03-13T10:17:34.636Z,11.60
2023-03-13T10:20:16.341Z,15.10
2023-03-13T10:22:46.789Z,10.70
2023-03-13T10:25:22.411Z,10.70
2023-03-13T10:27:53.350Z,10.80
2023-03-13T10:30:28.488Z,10.00
2023-03-13T10:33:01.274Z,8.10
2023-03-13T10:35:33.722Z,12.10
2023-03-13T10:38:05.246Z,9.90
2023-03-13T10:40:32.548Z,8.90
2023-03-13T10:43:20.616Z,10.80
2023-03-13T10:45:48.876Z,13.70
2023-03-13T10:48:20.274Z,12.60
2023-03-13T10:50:50.663Z,10.50
2023-03-13T10:53:29.589Z,12.00
2023-03-13T10:56:03.237Z,11.10
2023-03-13T10:58:42.691Z,9.90
2023-03-13T11:01:23.133Z,14.20
2023-03-13T11:03:53.224Z,12.90
2023-03-13T11:06:28.924Z,14.50
2023-03-13T11:09:16.470Z,10.50
2023-03-13T11:11:50.475Z,12.50
2023-03-13T11:14:25.977Z,10.70
2023-03-13T11:16:53.230Z,13.10
2023-03-13T11:19:30.037Z,10.80
2023-03-13T11:21:59.906Z,12.60
2023-03-13T11:24:49.843Z,16.90
2023-03-13T11:27:29.857Z,10.90
2023-03-13T11:30:04.649Z,14.60
2023-03-13T11:32:47.743Z,13.80
2023-03-13T11:35:40.584Z,14.40
2023-03-13T11:38:20.149Z,13.20
2023-03-13T11:41:15.928Z,17.40
2023-03-13T11:43:51.290Z,12.90
2023-03-13T11:46:43.427Z,13.50
2023-03-13T11:49:43.382Z,12.70
2023-03-13T11:52:19.557Z,11.20
2023-03-13T11:54:57.485Z,15.10
2023-03-13T11:57:40.349Z,11.90
2023-03-13T12:00:24.953Z,15.30
2023-03-13T12:03:06.558Z,13.50
2023-03-13T12:05:43.684Z,11.60
2023-03-13T12:08:27.052Z,11.90
2023-03-13T12:11:22.359Z,12.90
2023-03-13T12:13:56.197Z,11.80
2023-03-13T12:16:39.616Z,13.70
2023-03-13T12:19:11.345Z,14.40
2023-03-13T12:21:47.993Z,15.90
2023-03-13T12:24:34.233Z,15.00
2023-03-13T12:27:03.972Z,13.70
2023-03-13T12:29:40.733Z,12.30
2023-03-13T12:32:11.625Z,12.10
2023-03-13T12:34:45.425Z,13.70
2023-03-13T12:37:30.703Z,12.70
2023-03-13T12:40:14.572Z,12.70
2023-03-13T12:42:58.450Z,19.60
2023-03-13T12:45:26.691Z,14.10
2023-03-13T12:48:11.937Z,13.30
2023-03-13T12:51:02.901Z,12.10
2023-03-13T12:53:32.841Z,13.60
2023-03-13T12:56:24.136Z,13.00
2023-03-13T12:59:16.399Z,13.10
2023-03-13T13:01:48.235Z,11.30
2023-03-13T13:04:16.679Z,17.60
2023-03-13T13:06:57.717Z,11.60
2023-03-13T13:09:40.183Z,11.60
2023-03-13T13:14:50.338Z,16.20
2023-03-13T13:17:43.168Z,11.60
2023-03-13T13:20:45.230Z,12.00
2023-03-13T13:23:34.204Z,14.30
2023-03-13T13:26:37.562Z,10.30
2023-03-13T13:29:27.642Z,11.60
2023-03-13T13:31:57.955Z,17.70
2023-03-13T13:34:36.427Z,11.00
2023-03-13T13:37:23.092Z,11.70
2023-03-13T13:39:54.311Z,15.20
2023-03-13T13:42:33.132Z,11.60
2023-03-13T13:45:14.946Z,10.50
2023-03-13T13:47:45.209Z,9.50
2023-03-13T13:50:32.289Z,12.00
2023-03-13T13:53:33.390Z,9.80
2023-03-13T13:56:03.371Z,14.30
2023-03-13T13:58:32.587Z,10.40
2023-03-13T14:01:11.235Z,9.30
2023-03-13T14:03:42.375Z,10.60
2023-03-13T14:06:23.147Z,9.30
2023-03-13T14:08:55.481Z,10.70
2023-03-13T14:11:31.844Z,11.30
2023-03-13T14:14:16.087Z,10.90
2023-03-13T14:16:57.104Z,9.80
2023-03-13T14:19:34.075Z,15.40
2023-03-13T14:22:03.204Z,10.90
2023-03-13T14:24:29.966Z,12.20
2023-03-13T14:26:57.019Z,11.40
2023-03-13T14:29:26.997Z,10.60
2023-03-13T14:31:56.549Z,9.20
2023-03-13T14:34:23.893Z,11.60
2023-03-13T14:37:07.408Z,10.10
2023-03-13T14:39:46.353Z,10.80
2023-03-13T14:42:16.092Z,7.90
2023-03-13T14:44:46.636Z,11.70
2023-03-13T14:47:27.118Z,13.20
2023-03-13T14:50:15.003Z,11.30
2023-03-13T14:52:49.769Z,11.30
2023-03-13T14:55:22.628Z,10.10
2023-03-13T14:58:27.041Z,11.10
2023-03-13T15:00:55.483Z,9.70
2023-03-13T15:03:27.640Z,10.50
2023-03-13T15:06:07.646Z,11.80
2023-03-13T15:08:44.158Z,10.50
2023-03-13T15:11:27.689Z,11.00
2023-03-13T15:13:55.220Z,8.30
2023-03-13T15:16:23.858Z,10.80
2023-03-13T15:18:51.809Z,9.00
2023-03-13T15:21:33.008Z,9.20
2023-03-13T15:24:12.612Z,13.40
2023-03-13T15:26:39.609Z,11.10
2023-03-13T15:29:06.517Z,12.10
2023-03-13T15:31:33.570Z,10.50
2023-03-13T15:34:01.784Z,10.00
2023-03-13T15:36:30.088Z,9.00
2023-03-13T15:38:57.915Z,10.60
2023-03-13T15:41:25.117Z,8.30
2023-03-13T15:43:57.052Z,11.40
2023-03-13T15:46:25.776Z,12.10
2023-03-13T15:48:54.083Z,8.70
2023-03-13T15:51:21.130Z,9.50
2023-03-13T15:53:48.109Z,11.40
2023-03-13T15:56:17.792Z,8.50
2023-03-13T15:58:47.381Z,8.10
2023-03-13T16:01:16.501Z,12.40
2023-03-13T16:03:43.803Z,8.50
2023-03-13T16:06:19.917Z,12.20
2023-03-13T16:08:47.449Z,9.40
2023-03-13T16:11:16.841Z,10.30
2023-03-13T16:13:44.054Z,8.80
2023-03-13T16:16:22.703Z,9.20
2023-03-13T16:18:51.003Z,8.00
2023-03-13T16:21:21.100Z,8.20
2023-03-13T16:23:48.574Z,11.70
2023-03-13T16:26:24.140Z,9.80
2023-03-13T16:28:52.680Z,13.60
2023-03-13T16:31:21.272Z,15.80
2023-03-13T16:33:48.786Z,14.80
2023-03-13T16:36:18.191Z,13.80
2023-03-13T16:38:47.842Z,9.80
2023-03-13T16:41:18.118Z,13.40
2023-03-13T16:43:46.175Z,16.30
2023-03-13T16:46:32.563Z,13.30
2023-03-13T16:48:59.854Z,19.20
2023-03-13T16:51:27.809Z,17.80
2023-03-13T16:53:56.930Z,17.40
2023-03-13T16:56:38.704Z,16.50
2023-03-13T16:59:21.607Z,24.40
2023-03-13T17:01:48.477Z,18.30
2023-03-13T17:04:15.380Z,21.70
2023-03-13T17:06:44.813Z,20.10
2023-03-13T17:09:17.764Z,21.80
2023-03-13T17:11:45.006Z,19.60
2023-03-13T17:14:13.342Z,25.20
2023-03-13T17:16:43.600Z,20.70
2023-03-13T17:19:14.563Z,26.80
2023-03-13T17:21:41.512Z,39.50
2023-03-13T17:24:08.411Z,25.80
2023-03-13T17:26:37.959Z,25.90
2023-03-13T17:29:06.683Z,36.10
2023-03-13T17:31:37.518Z,40.80
2023-03-13T17:34:05.994Z,41.80
2023-03-13T17:36:33.423Z,33.10
2023-03-13T17:39:02.114Z,40.80
2023-03-13T17:41:32.127Z,39.40
2023-03-13T17:44:03.933Z,36.00
2023-03-13T17:46:44.186Z,40.50
2023-03-13T17:49:13.275Z,33.30
2023-03-13T17:51:41.751Z,35.70
2023-03-13T17:54:09.125Z,37.40
2023-03-13T17:56:39.559Z,43.10
2023-03-13T17:59:19.271Z,51.40
2023-03-13T18:01:46.482Z,47.00
2023-03-13T18:04:13.511Z,42.00
2023-03-13T18:06:43.459Z,38.20
2023-03-13T18:09:16.461Z,36.50
2023-03-13T18:11:43.924Z,33.60
2023-03-13T18:14:11.409Z,40.10
2023-03-13T18:16:50.557Z,38.10
2023-03-13T18:19:22.382Z,42.50
2023-03-13T18:21:54.310Z,57.70
2023-03-13T18:24:21.863Z,80.60
2023-03-13T18:26:49.923Z,58.30
2023-03-13T18:29:26.643Z,47.80
2023-03-13T18:31:55.441Z,43.20
2023-03-13T18:34:23.502Z,42.10
2023-03-13T18:36:50.752Z,43.30
2023-03-13T18:39:18.702Z,40.10
2023-03-13T18:41:49.257Z,43.70
2023-03-13T18:44:18.941Z,44.10
2023-03-13T18:46:45.978Z,38.80
2023-03-13T18:49:18.997Z,40.60
2023-03-13T18:51:46.885Z,45.60
2023-03-13T18:54:14.236Z,38.60
2023-03-13T18:56:41.630Z,42.70
2023-03-13T18:59:13.364Z,42.80
2023-03-13T19:01:40.691Z,38.20
2023-03-13T19:04:07.578Z,33.50
2023-03-13T19:06:36.575Z,32.80
2023-03-13T19:09:41.139Z,35.80
2023-03-13T19:12:03.321Z,43.20
2023-03-13T19:14:31.214Z,37.50
2023-03-13T19:16:58.426Z,39.70
2023-03-13T19:19:26.272Z,31.00
2023-03-13T19:21:57.220Z,34.30
2023-03-13T19:24:26.883Z,37.90
2023-03-13T19:26:58.806Z,35.30
2023-03-13T19:29:27.941Z,33.10
2023-03-13T19:31:55.360Z,35.50
2023-03-13T19:34:22.458Z,43.50
2023-03-13T19:36:50.297Z,25.20
2023-03-13T19:39:19.751Z,32.70
2023-03-13T19:41:49.657Z,34.60
2023-03-13T19:44:17.789Z,37.10
2023-03-13T19:46:45.499Z,38.10
2023-03-13T19:49:15.078Z,33.30
2023-03-13T19:51:42.075Z,31.20
2023-03-13T19:54:12.890Z,28.60
2023-03-13T19:56:43.575Z,27.90
2023-03-13T19:59:19.332Z,19.40
2023-03-13T20:01:46.562Z,19.60
2023-03-13T20:04:13.912Z,17.20
2023-03-13T20:06:43.249Z,17.50
2023-03-13T20:09:12.431Z,13.90
2023-03-13T20:11:39.344Z,19.70
2023-03-13T20:14:06.709Z,18.70
2023-03-13T20:16:35.098Z,21.70
2023-03-13T20:19:02.957Z,13.00
2023-03-13T20:21:32.810Z,20.10
2023-03-13T20:24:00.543Z,21.10
2023-03-13T20:26:28.782Z,14.50
2023-03-13T20:28:56.576Z,14.10
2023-03-13T20:31:26.415Z,12.90
2023-03-13T20:33:53.578Z,8.00
2023-03-13T20:36:21.319Z,11.60
2023-03-13T20:38:48.242Z,10.90
2023-03-13T20:41:16.582Z,10.50
2023-03-13T20:43:43.642Z,11.80
2023-03-13T20:46:10.969Z,10.30
2023-03-13T20:48:39.607Z,8.40
2023-03-13T20:51:08.240Z,8.90
2023-03-13T20:53:40.360Z,9.70
2023-03-13T20:56:08.808Z,7.50
2023-03-13T20:58:36.977Z,9.60
2023-03-13T21:01:05.496Z,8.70
2023-03-13T21:03:35.488Z,8.30
2023-03-13T21:06:10.324Z,6.60
2023-03-13T21:08:38.674Z,6.30
2023-03-13T21:11:22.792Z,5.50
2023-03-13T21:13:50.365Z,7.20
2023-03-13T21:16:18.929Z,10.00
2023-03-13T21:18:46.879Z,11.70
2023-03-13T21:21:18.982Z,7.30
2023-03-13T21:23:46.519Z,6.50
2023-03-13T21:26:14.087Z,7.80
2023-03-13T21:28:41.078Z,6.90
2023-03-13T21:31:16.295Z,5.90
2023-03-13T21:33:45.051Z,6.00
2023-03-13T21:36:13.520Z,9.00
2023-03-13T21:38:40.614Z,5.40
2023-03-13T21:41:12.583Z,7.20
2023-03-13T21:43:41.664Z,8.70
2023-03-13T21:46:10.956Z,7.00
2023-03-13T21:48:39.214Z,7.70
2023-03-13T21:51:08.482Z,15.60
2023-03-13T21:53:36.197Z,19.40
2023-03-13T21:56:04.024Z,10.50
2023-03-13T21:58:30.967Z,7.80
2023-03-13T22:00:58.495Z,8.20
2023-03-13T22:03:28.556Z,6.50
2023-03-13T22:05:55.487Z,8.30
2023-03-13T22:08:22.481Z,9.40
2023-03-13T22:10:51.102Z,14.30
2023-03-13T22:13:18.740Z,7.40
2023-03-13T22:15:46.729Z,6.60
2023-03-13T22:18:14.901Z,7.80
2023-03-13T22:20:42.529Z,9.50
2023-03-13T22:23:10.846Z,7.60
2023-03-13T22:25:39.609Z,6.90
2023-03-13T22:28:06.546Z,11.80
2023-03-13T22:30:33.302Z,11.30
2023-03-13T22:33:00.176Z,32.50
2023-03-13T22:35:26.938Z,20.30
2023-03-13T22:37:53.806Z,26.30
2023-03-13T22:40:20.677Z,18.60
2023-03-13T22:42:47.465Z,15.80
2023-03-13T22:45:14.375Z,14.60
2023-03-13T22:47:41.126Z,11.50
2023-03-13T22:50:10.991Z,11.50
2023-03-13T22:52:38.597Z,9.80
2023-03-13T22:55:05.907Z,10.30
2023-03-13T22:57:32.850Z,10.80
2023-03-13T23:00:00.347Z,11.90
2023-03-13T23:02:27.942Z,8.30
2023-03-13T23:04:59.467Z,9.00
2023-03-13T23:07:28.554Z,9.00
2023-03-13T23:09:56.581Z,9.50
2023-03-13T23:12:24.473Z,14.40
2023-03-13T23:14:52.238Z,17.90
2023-03-13T23:17:19.063Z,9.80
2023-03-13T23:19:45.921Z,17.00
2023-03-13T23:22:17.913Z,12.00
2023-03-13T23:24:44.982Z,32.80
2023-03-13T23:27:11.928Z,34.30
2023-03-13T23:29:39.111Z,38.50
2023-03-13T23:32:06.060Z,35.40
2023-03-13T23:34:35.428Z,43.60
2023-03-13T23:37:02.144Z,42.30
2023-03-13T23:39:28.984Z,46.80
2023-03-13T23:41:56.324Z,77.50
2023-03-13T23:44:23.186Z,46.10
2023-03-13T23:46:50.004Z,45.00
2023-03-13T23:49:16.845Z,44.00
2023-03-13T23:51:43.619Z,39.20
2023-03-13T23:54:10.345Z,34.20
2023-03-13T23:56:37.105Z,34.70
2023-03-13T23:59:03.920Z,31.20
